Canefield Airport

Cloudy with slight dust haze
32oC (90oF)

Cloudy with slight dust haze


Winds: North westerly @ 02kts / 04km/h

Humidity: 69%

Barometric Pressure: 1013 mb

Accumulated Rainfall for July: 191.7 mm

Updated: 16:00 local time (20:00 UTC)

Douglas-Charles Airport

Partly cloudy with slight dust haze
30oC (86oF)

Partly cloudy with slight dust haze


Winds: Easterly @ 09kts / 17km/h

Humidity: 86%

Barometric Pressure: 1016 mb

Accumulated Rainfall for July: 136.6 mm

Updated: 17:00 local time (21:00 UTC)

Satellite Imagery

Satellite Imagery
Click image for larger view.
(Source: National Hurricane Center).

Aviation Routine Report (METAR)

Douglas-Charles: METAR TDPD 132100Z 10009KT 9999 SCT017 30/27 Q1016=
Canefield: METAR TDCF 132000Z 31002KT 9999 BKN020 32/26 Q1013=